Language: 


Des rapports , des résumés tant et plus, au choix de chacun....


Données statistiques de la station
Quotidien Rapport Février 6, 2017 Unités:  Anglais    Métrique   les deux
« Précédent Jour
Suivant Jour »
Quotidien Hebdomadaire Mensuel Annuel Actuel
  Haut: Bas: Moyen:
Température: 49.5 °F 37 °F 42.6 °F
Pt de rosée: 46.9 °F 36.1 °F 41.2 °F
Humidité: 98 % 81 % 95 %
Vitesse du vent: 12.1 mph 0 mph 1.9 mph
Rafales: 12.8 mph - -
Vent:- - WSW
Pression: 30.1 in 29.8 in -
Précipitation: 0.04 in    
Historical Graphs
 
 
Données statistiques pour Février 6, 2017
Heure Température Point de rosée Pression Vent Vitesse du vent Refales Humidité Pluie (taux horaire)
00:00 41.4 °F 40.8 °F 29.8 in North 5.8 mph 10.1 mph 98 % 0.07 in
00:05 41.4 °F 40.8 °F 29.8 in North 8.1 mph 12.8 mph 98 % 0.06 in
00:10 41.4 °F 40.8 °F 29.8 in North 8.7 mph 12.8 mph 98 % 0.07 in
00:15 41.4 °F 40.8 °F 29.8 in NNE 12.1 mph 12.3 mph 98 % 0.06 in
00:20 41.4 °F 40.8 °F 29.8 in NNE 10.7 mph 12.1 mph 98 % 0.07 in
00:25 41.4 °F 40.8 °F 29.8 in NNE 4.3 mph 12.1 mph 98 % 0.07 in
00:30 41.4 °F 40.8 °F 29.8 in NNE 4.3 mph 10.7 mph 98 % 0.06 in
00:35 41.4 °F 40.8 °F 29.8 in NNE 4.3 mph 4.3 mph 98 % 0.05 in
00:40 41.4 °F 40.8 °F 29.8 in NE 7.6 mph 7.6 mph 98 % 0.06 in
00:45 41.4 °F 40.8 °F 29.8 in NE 7.6 mph 7.6 mph 98 % 0.04 in
00:50 41.4 °F 40.8 °F 29.8 in NNE 6 mph 7.6 mph 98 % 0.04 in
00:55 41.4 °F 40.8 °F 29.9 in NNE 6 mph 7.6 mph 98 % 0.04 in
01:00 41.4 °F 40.8 °F 29.9 in North 8.1 mph 8.1 mph 98 % 0.03 in
01:05 41.4 °F 40.8 °F 29.9 in NNW 2.7 mph 10.3 mph 98 % 0.03 in
01:10 41.2 °F 40.6 °F 29.9 in NNW 5.8 mph 10.3 mph 98 % 0.02 in
01:15 41.2 °F 40.6 °F 29.9 in NNE 4.9 mph 6.3 mph 98 % 0.02 in
01:20 41.2 °F 40.6 °F 29.9 in NNW 1.3 mph 6.3 mph 98 % 0.01 in
01:25 41.2 °F 40.6 °F 29.9 in North 4.9 mph 7.6 mph 98 % 0.01 in
01:30 41.2 °F 40.6 °F 29.9 in NNE 3.8 mph 7.6 mph 98 % 0.01 in
01:35 41.2 °F 40.6 °F 29.9 in NNW 4.9 mph 4.9 mph 98 % 0.01 in
01:40 41.2 °F 40.6 °F 29.8 in North 7.2 mph 7.2 mph 98 % 0 in
01:45 41.2 °F 40.6 °F 29.8 in North 7.2 mph 7.2 mph 98 % 0 in
01:50 41.2 °F 40.6 °F 29.8 in North 3.8 mph 7.4 mph 98 % 0 in
01:55 41.2 °F 40.6 °F 29.9 in North 3.8 mph 7.4 mph 98 % 0 in
02:02 41.2 °F 40.6 °F 29.9 in North 5.8 mph 6.3 mph 98 % 0 in
02:07 41.2 °F 40.6 °F 29.8 in North 3.4 mph 5.8 mph 98 % 0 in
02:12 41.2 °F 40.6 °F 29.8 in North 3.8 mph 7.4 mph 98 % 0 in
02:17 41.2 °F 40.6 °F 29.8 in North 3.8 mph 10.5 mph 98 % 0.01 in
02:22 41.2 °F 40.6 °F 29.9 in North 3.1 mph 10.5 mph 98 % 0.01 in
02:27 41 °F 40.5 °F 29.9 in North 6.5 mph 8.7 mph 98 % 0.01 in
02:32 41 °F 40.5 °F 29.9 in NNE 4.3 mph 7.8 mph 98 % 0.01 in
02:37 40.8 °F 40.3 °F 29.9 in NNE 4 mph 7.8 mph 98 % 0.01 in
02:42 40.8 °F 40.3 °F 29.9 in NE 2.5 mph 7.4 mph 98 % 0.01 in
02:47 40.8 °F 40.3 °F 29.9 in Calm   6.5 mph 98 % 0.01 in
02:52 40.6 °F 40.1 °F 29.9 in North 6.3 mph 6.5 mph 98 % 0.01 in
02:57 40.6 °F 40.1 °F 29.9 in NNW 1.1 mph 6.3 mph 98 % 0.01 in
03:02 40.5 °F 39.9 °F 29.9 in Calm   6.3 mph 98 % 0.01 in
03:07 40.5 °F 39.9 °F 29.9 in NW 4.3 mph 5.6 mph 98 % 0.01 in
03:12 40.5 °F 39.9 °F 29.9 in West 3.1 mph 5.6 mph 98 % 0.01 in
03:17 40.5 °F 39.9 °F 29.9 in North 2.2 mph 4.9 mph 98 % 0 in
03:22 40.3 °F 39.7 °F 29.9 in NNW 2.5 mph 4.9 mph 98 % 0 in
03:27 40.3 °F 39.7 °F 29.9 in WNW 3.6 mph 3.6 mph 98 % 0 in
03:32 40.1 °F 39.6 °F 29.9 in WNW 3.6 mph 3.6 mph 98 % 0 in
03:37 40.1 °F 39.6 °F 29.9 in NNW 0.9 mph 3.6 mph 98 % 0 in
03:42 40.1 °F 39.6 °F 29.9 in West 2.9 mph 4.3 mph 98 % 0 in
03:47 39.9 °F 39.4 °F 29.9 in NW 1.3 mph 4.3 mph 98 % 0 in
03:52 39.9 °F 39.4 °F 29.9 in WNW 0.9 mph 3.1 mph 98 % 0 in
03:57 39.9 °F 39.4 °F 29.9 in North 0.9 mph 4.7 mph 98 % 0 in
04:02 39.7 °F 39.2 °F 29.9 in NNW 4.7 mph 4.7 mph 98 % 0 in
04:07 39.7 °F 39.2 °F 29.9 in NNW 4.7 mph 4.7 mph 98 % 0 in
04:12 39.7 °F 39.2 °F 29.9 in NNW 3.6 mph 4.7 mph 98 % 0 in
04:17 39.7 °F 39.2 °F 29.9 in NNW 5.6 mph 5.6 mph 98 % 0 in
04:22 39.7 °F 39.2 °F 29.9 in West 1.3 mph 5.6 mph 98 % 0 in
04:27 39.7 °F 39.2 °F 29.9 in WNW 1.6 mph 5.6 mph 98 % 0 in
04:32 39.7 °F 39.2 °F 29.9 in NNW 4.9 mph 4.9 mph 98 % 0 in
04:37 39.9 °F 39.4 °F 29.9 in North 1.1 mph 4.9 mph 98 % 0 in
04:42 40.1 °F 39.6 °F 29.9 in NNW 0.9 mph 4.9 mph 98 % 0 in
04:47 40.1 °F 39.6 °F 29.9 in North 4 mph 4 mph 98 % 0 in
04:52 40.1 °F 39.6 °F 29.9 in Calm   4 mph 98 % 0 in
04:57 40.1 °F 39.6 °F 29.9 in WNW 1.6 mph 4.7 mph 98 % 0 in
05:02 40.1 °F 39.6 °F 29.9 in NW 3.4 mph 4.7 mph 98 % 0 in
05:03 40.1 °F 39.6 °F 29.9 in NW 3.4 mph 4.7 mph 98 % 0 in
05:08 40.3 °F 39.7 °F 29.9 in North 1.6 mph 6 mph 98 % 0 in
05:13 40.3 °F 39.7 °F 29.9 in NNW 1.6 mph 6 mph 98 % 0 in
05:18 40.3 °F 39.7 °F 29.9 in NW 3.6 mph 3.6 mph 98 % 0 in
05:23 40.3 °F 39.7 °F 29.9 in NNW 4.9 mph 4.9 mph 98 % 0 in
05:28 40.3 °F 39.7 °F 29.9 in Calm   4.9 mph 98 % 0 in
05:38 40.3 °F 39.7 °F 30 in NW 1.1 mph 1.1 mph 98 % 0 in
05:43 40.5 °F 39.9 °F 30 in NW 1.1 mph 1.1 mph 98 % 0 in
05:48 40.5 °F 39.9 °F 30 in WNW 3.6 mph 3.6 mph 98 % 0 in
05:53 40.5 °F 39.9 °F 30 in WNW 3.6 mph 3.6 mph 98 % 0 in
05:58 40.5 °F 39.9 °F 30 in WNW 3.6 mph 3.6 mph 98 % 0 in
06:03 40.6 °F 40.1 °F 30 in WNW 3.6 mph 3.6 mph 98 % 0 in
06:08 40.6 °F 40.1 °F 30 in WNW 3.6 mph 3.6 mph 98 % 0 in
06:13 40.8 °F 39.9 °F 30 in WNW 3.6 mph 3.6 mph 97 % 0 in
06:18 40.8 °F 39.9 °F 30 in WNW 3.6 mph 3.6 mph 97 % 0 in
06:23 40.6 °F 39.9 °F 29.9 in WNW 3.6 mph 3.6 mph 97 % 0 in
06:28 40.6 °F 39.9 °F 29.9 in WNW 3.6 mph 3.6 mph 97 % 0 in
06:33 40.5 °F 39.7 °F 29.9 in WNW 3.6 mph 3.6 mph 97 % 0 in
06:38 40.5 °F 39.7 °F 30 in WNW 3.6 mph 3.6 mph 97 % 0 in
06:43 40.5 °F 39.7 °F 30 in WNW 3.6 mph 3.6 mph 97 % 0 in
06:48 40.5 °F 39.7 °F 30 in NNW 2.9 mph 2.9 mph 97 % 0 in
06:53 40.5 °F 39.7 °F 30 in North 2 mph 4 mph 97 % 0 in
06:58 40.6 °F 39.9 °F 30 in North 5.4 mph 5.4 mph 97 % 0 in
07:03 40.6 °F 39.9 °F 30 in NNW 1.1 mph 5.4 mph 97 % 0 in
07:08 40.8 °F 39.7 °F 30 in WNW 1.6 mph 5.4 mph 96 % 0 in
07:13 40.8 °F 39.7 °F 30 in Calm   2 mph 96 % 0 in
07:18 40.6 °F 39.6 °F 30 in Calm   2 mph 96 % 0 in
07:23 40.6 °F 39.6 °F 30 in Calm     96 % 0 in
07:28 40.6 °F 39.6 °F 30 in Calm     96 % 0 in
07:33 40.6 °F 39.6 °F 30 in WNW 2.5 mph 2.5 mph 96 % 0 in
07:38 40.6 °F 39.6 °F 30 in WNW 2.5 mph 2.5 mph 96 % 0 in
07:43 40.5 °F 39.4 °F 30 in WNW 2.5 mph 2.5 mph 96 % 0 in
07:48 40.5 °F 39.4 °F 30 in WNW 2.5 mph 2.5 mph 96 % 0 in
07:53 40.1 °F 39 °F 30 in Calm   2.5 mph 96 % 0 in
07:58 39.7 °F 38.5 °F 30 in Calm     95 % 0 in
08:03 39.6 °F 38.3 °F 30 in Calm     95 % 0 in
08:08 39.4 °F 38.1 °F 30 in Calm     95 % 0 in
08:13 39.4 °F 38.1 °F 30 in Calm   0.9 mph 95 % 0 in
08:18 39.4 °F 38.1 °F 30 in Calm   1.1 mph 95 % 0 in
08:23 39.4 °F 38.1 °F 30 in ENE 1.6 mph 1.6 mph 95 % 0 in
08:28 38.1 °F 36.9 °F 30 in Calm   2.2 mph 95 % 0 in
08:33 37.9 °F 36.7 °F 30 in Calm   2.2 mph 95 % 0 in
08:38 37.6 °F 36.3 °F 30 in Calm     95 % 0 in
08:43 37.6 °F 36.1 °F 30 in Calm     95 % 0 in
08:48 37.6 °F 36.1 °F 30 in Calm     95 % 0 in
08:53 37.6 °F 36.1 °F 30 in Calm     95 % 0 in
08:58 37.2 °F 36.3 °F 30 in Calm   1.6 mph 96 % 0 in
09:03 37 °F 36.3 °F 30 in Calm   1.6 mph 97 % 0 in
09:08 37.2 °F 36.5 °F 30 in West 2 mph 2.7 mph 97 % 0 in
09:13 37.2 °F 36.5 °F 30 in Calm   2.7 mph 97 % 0 in
09:18 37.6 °F 37 °F 30 in Calm   2 mph 98 % 0 in
09:23 37.8 °F 37.2 °F 30 in Calm   0.9 mph 98 % 0 in
09:28 38.1 °F 37.8 °F 30 in Calm     98 % 0 in
09:33 38.7 °F 38.1 °F 30 in Calm     98 % 0 in
09:38 39.2 °F 38.7 °F 30 in Calm     98 % 0 in
09:43 39.7 °F 39.2 °F 30 in Calm     98 % 0 in
09:48 40.3 °F 39.7 °F 30 in Calm   0.9 mph 98 % 0 in
09:53 40.5 °F 39.9 °F 30 in Calm   0.9 mph 98 % 0 in
09:58 40.5 °F 39.9 °F 30 in Calm     98 % 0 in
10:03 40.8 °F 40.3 °F 30 in Calm     98 % 0 in
10:08 41 °F 40.5 °F 30 in Calm     98 % 0 in
10:13 41.4 °F 40.8 °F 30 in Calm     98 % 0 in
10:18 41.5 °F 41 °F 30 in Calm     98 % 0 in
10:23 41.5 °F 41 °F 30.1 in Calm     98 % 0 in
10:28 41.7 °F 41.2 °F 30.1 in Calm     98 % 0 in
10:33 41.9 °F 41.4 °F 30.1 in Calm     98 % 0 in
10:38 42.1 °F 41.5 °F 30.1 in Calm     98 % 0 in
10:43 42.1 °F 41.4 °F 30.1 in Calm     97 % 0 in
10:48 42.1 °F 41.4 °F 30.1 in Calm     97 % 0 in
10:53 42.3 °F 41.4 °F 30.1 in Calm     97 % 0 in
10:58 42.4 °F 41.5 °F 30.1 in Calm     97 % 0 in
11:03 42.4 °F 41.9 °F 30.1 in Calm   2 mph 98 % 0 in
11:08 42.6 °F 41.7 °F 30.1 in Calm   2 mph 97 % 0 in
11:13 42.6 °F 41.7 °F 30.1 in Calm     97 % 0 in
11:18 42.8 °F 42.1 °F 30.1 in Calm     97 % 0 in
11:23 42.8 °F 42.1 °F 30.1 in Calm     97 % 0 in
11:28 42.8 °F 42.1 °F 30.1 in Calm     97 % 0 in
11:33 42.8 °F 42.1 °F 30.1 in Calm     97 % 0 in
11:38 42.8 °F 42.1 °F 30.1 in Calm     97 % 0 in
11:43 42.8 °F 42.1 °F 30.1 in Calm     97 % 0 in
11:48 43 °F 42.1 °F 30.1 in Calm     97 % 0 in
11:53 43 °F 42.1 °F 30.1 in Calm     97 % 0 in
11:58 43.2 °F 42.3 °F 30.1 in Calm     97 % 0 in
12:03 43.2 °F 42.3 °F 30.1 in Calm     97 % 0 in
12:08 43.3 °F 42.4 °F 30.1 in Calm     97 % 0 in
12:13 43.3 °F 42.4 °F 30.1 in Calm     97 % 0 in
12:18 43.5 °F 42.6 °F 30.1 in Calm     97 % 0 in
12:23 43.5 °F 42.6 °F 30.1 in Calm     97 % 0 in
12:28 43.5 °F 42.8 °F 30.1 in Calm     97 % 0 in
12:33 43.9 °F 43 °F 30.1 in Calm     97 % 0 in
12:38 44.1 °F 43.2 °F 30.1 in Calm     97 % 0 in
12:43 44.1 °F 43.2 °F 30.1 in SSE 1.1 mph 3.1 mph 97 % 0 in
12:48 44.2 °F 43.5 °F 30.1 in Calm   3.1 mph 97 % 0 in
12:53 44.4 °F 43.7 °F 30.1 in Calm   1.3 mph 97 % 0 in
12:58 44.8 °F 43.9 °F 30.1 in Calm   1.1 mph 97 % 0 in
13:03 45.1 °F 44.2 °F 30.1 in Calm   2.5 mph 97 % 0 in
13:08 45.3 °F 44.6 °F 30.1 in SW 3.4 mph 3.4 mph 97 % 0 in
13:13 45.9 °F 45.1 °F 30.1 in WSW 3.1 mph 4.3 mph 97 % 0 in
13:18 46.2 °F 45.5 °F 30.1 in WSW 2.5 mph 4.3 mph 97 % 0 in
13:23 46.6 °F 45.3 °F 30.1 in Calm   2.9 mph 96 % 0 in
13:28 46.6 °F 45.7 °F 30.1 in SW 1.1 mph 2.9 mph 96 % 0 in
13:33 46.8 °F 45.7 °F 30.1 in Calm   2.9 mph 96 % 0 in
13:38 46.9 °F 45.9 °F 30.1 in Calm   2.5 mph 96 % 0 in
13:43 47.1 °F 46 °F 30.1 in SSW 1.1 mph 2.7 mph 96 % 0 in
13:48 47.1 °F 46 °F 30.1 in WSW 2.7 mph 3.1 mph 96 % 0 in
13:53 47.1 °F 46 °F 30.1 in SW 2.5 mph 3.4 mph 96 % 0 in
13:58 47.1 °F 46 °F 30.1 in Calm   3.6 mph 96 % 0 in
14:03 47.5 °F 46.4 °F 30.1 in Calm   3.6 mph 96 % 0 in
14:08 47.5 °F 46.4 °F 30.1 in WSW 3.1 mph 4.3 mph 96 % 0 in
14:13 48.2 °F 46.9 °F 30.1 in SW 2.5 mph 4.3 mph 95 % 0 in
14:18 48 °F 46.8 °F 30.1 in West 3.6 mph 4.7 mph 95 % 0 in
14:23 47.7 °F 46.2 °F 30.1 in West 4.7 mph 6.7 mph 95 % 0 in
14:28 47.5 °F 46.2 °F 30.1 in WSW 4 mph 6.7 mph 95 % 0 in
14:33 48.2 °F 46.6 °F 30.1 in WSW 4.9 mph 5.4 mph 94 % 0 in
14:38 48 °F 46 °F 30.1 in West 6 mph 6 mph 93 % 0 in
14:43 48.2 °F 46 °F 30.1 in WSW 4.3 mph 7.8 mph 92 % 0 in
14:48 47.7 °F 44.6 °F 30.1 in West 4.9 mph 7.8 mph 89 % 0 in
14:53 48.2 °F 44.4 °F 30 in WSW 3.8 mph 8.1 mph 87 % 0 in
14:58 48.7 °F 45.1 °F 30 in WSW 5.4 mph 8.1 mph 87 % 0 in
15:03 49.5 °F 46 °F 30 in West 5.6 mph 6 mph 88 % 0 in
15:08 49.1 °F 44.8 °F 30.1 in WSW 5.4 mph 7.4 mph 85 % 0 in
15:13 49.1 °F 44.2 °F 30.1 in WSW 4.9 mph 7.4 mph 83 % 0 in
15:18 48.4 °F 43.5 °F 30.1 in West 4.7 mph 6.7 mph 83 % 0 in
15:23 48 °F 42.4 °F 30.1 in West 6 mph 6.7 mph 81 % 0 in
15:28 48.2 °F 43 °F 30.1 in WSW 4.7 mph 7.4 mph 82 % 0 in
15:33 48 °F 42.8 °F 30.1 in WSW 4.9 mph 7.4 mph 82 % 0 in
15:38 48.6 °F 43.7 °F 30.1 in West 4 mph 6.5 mph 83 % 0 in
15:43 48.9 °F 44.1 °F 30.1 in Calm   5.4 mph 83 % 0 in
15:48 49.5 °F 44.4 °F 30.1 in SW 2 mph 4.9 mph 83 % 0 in
15:53 49.5 °F 44.4 °F 30.1 in SW 2.9 mph 5.6 mph 83 % 0 in
15:58 48.9 °F 43.7 °F 30.1 in West 3.1 mph 5.6 mph 82 % 0 in
16:03 48.4 °F 43.2 °F 30.1 in WSW 3.4 mph 5.4 mph 82 % 0 in
16:08 47.7 °F 42.4 °F 30.1 in West 4.9 mph 5.4 mph 82 % 0 in
16:13 47.3 °F 42.1 °F 30.1 in West 3.6 mph 5.4 mph 82 % 0 in
16:18 46.9 °F 42.1 °F 30.1 in WSW 2.9 mph 4.9 mph 83 % 0 in
16:23 46.8 °F 41.9 °F 30.1 in WSW 3.6 mph 4.3 mph 83 % 0 in
16:28 46.6 °F 42.1 °F 30.1 in WSW 2.5 mph 4.3 mph 84 % 0 in
16:33 46.6 °F 41.9 °F 30.1 in West 2.9 mph 3.8 mph 84 % 0 in
16:38 46.2 °F 42.1 °F 30.1 in Calm   3.6 mph 85 % 0 in
16:43 46 °F 41.9 °F 30.1 in WSW 2.7 mph 4 mph 85 % 0 in
16:48 45.9 °F 42.1 °F 30.1 in West 4.3 mph 4.3 mph 86 % 0 in
16:53 45.9 °F 42.1 °F 30.1 in Calm   4.3 mph 86 % 0 in
16:58 45.9 °F 42.1 °F 30.1 in Calm   3.8 mph 87 % 0 in
17:03 45.9 °F 42.1 °F 30.1 in Calm     87 % 0 in
17:08 45.7 °F 42.3 °F 30.1 in Calm     88 % 0 in
17:13 45.7 °F 42.3 °F 30.1 in Calm     88 % 0 in
17:18 45.3 °F 42.4 °F 30.1 in Calm     89 % 0 in
17:23 45.1 °F 42.3 °F 30.1 in Calm     89 % 0 in
17:28 45.1 °F 42.3 °F 30.1 in Calm     89 % 0 in
17:33 45.1 °F 42.1 °F 30.1 in Calm     89 % 0 in
17:38 45 °F 42.1 °F 30.1 in Calm     90 % 0 in
17:43 44.8 °F 41.9 °F 30.1 in Calm     90 % 0 in
17:48 44.4 °F 41.7 °F 30.1 in Calm     90 % 0 in
17:53 44.4 °F 41.7 °F 30.1 in Calm     90 % 0 in
17:58 44.4 °F 42.1 °F 30.1 in Calm     91 % 0 in
18:03 44.2 °F 41.9 °F 30.1 in Calm     91 % 0 in
18:08 44.2 °F 41.9 °F 30.1 in Calm     91 % 0 in
18:09 44.2 °F 41.9 °F 30.1 in Calm     91 % 0 in
18:14 44.1 °F 41.7 °F 30.1 in Calm     92 % 0 in
18:19 44.1 °F 41.7 °F 30.1 in Calm     92 % 0 in
18:24 44.1 °F 41.7 °F 30.1 in Calm     92 % 0 in
18:29 43.9 °F 41.9 °F 30.1 in Calm     93 % 0 in
18:34 43.9 °F 41.9 °F 30.1 in Calm   0.9 mph 93 % 0 in
18:39 43.9 °F 41.9 °F 30.1 in Calm   1.1 mph 93 % 0 in
18:44 43.5 °F 41.7 °F 30.1 in Calm   1.1 mph 93 % 0 in
18:49 43.5 °F 41.7 °F 30.1 in Calm     93 % 0 in
18:54 43.5 °F 41.5 °F 30.1 in Calm     93 % 0 in
18:59 43.3 °F 41.4 °F 30.1 in Calm     93 % 0 in
19:04 43.3 °F 41.4 °F 30.1 in Calm     93 % 0 in
19:09 43.2 °F 41.2 °F 30.1 in Calm     93 % 0 in
19:14 43.2 °F 41.2 °F 30.1 in Calm     93 % 0 in
19:19 43.2 °F 41.5 °F 30.1 in Calm     94 % 0 in
19:24 43 °F 41.4 °F 30.1 in Calm     94 % 0 in
19:29 42.8 °F 41.2 °F 30.1 in ESE 1.1 mph 2 mph 94 % 0 in
19:34 42.8 °F 41.2 °F 30.1 in Calm   2 mph 94 % 0 in
19:39 42.8 °F 41.2 °F 30.1 in Calm   1.6 mph 94 % 0 in
19:44 42.6 °F 41 °F 30.1 in Calm   0.9 mph 94 % 0 in
19:49 42.6 °F 41 °F 30.1 in Calm   0.9 mph 94 % 0 in
19:54 42.4 °F 41.2 °F 30.1 in Calm   0.9 mph 95 % 0 in
19:55 42.4 °F 41.2 °F 30.1 in Calm   0.9 mph 95 % 0 in
20:00 42.3 °F 40.8 °F 30.1 in Calm     95 % 0 in
20:05 42.3 °F 40.8 °F 30.1 in Calm     95 % 0 in
20:10 42.3 °F 40.8 °F 30.1 in Calm     95 % 0 in
20:15 42.3 °F 40.8 °F 30.1 in Calm     95 % 0 in
20:20 42.1 °F 40.6 °F 30.1 in Calm     95 % 0 in
20:25 42.1 °F 40.6 °F 30.1 in Calm     95 % 0 in
20:30 42.1 °F 40.6 °F 30.1 in Calm     95 % 0 in
20:35 42.1 °F 40.6 °F 30.1 in Calm   1.3 mph 95 % 0 in
20:40 42.1 °F 40.6 °F 30 in Calm   1.3 mph 95 % 0 in
20:45 42.1 °F 40.6 °F 30 in Calm   0.9 mph 95 % 0 in
20:50 41.9 °F 40.6 °F 30 in Calm     95 % 0 in
20:55 41.9 °F 40.6 °F 30 in Calm     95 % 0 in
21:00 41.9 °F 40.6 °F 30 in Calm     95 % 0 in
21:05 41.9 °F 40.6 °F 30 in Calm     95 % 0 in
21:10 41.9 °F 40.6 °F 30 in SE 1.1 mph 1.1 mph 95 % 0 in
21:15 41.9 °F 40.6 °F 30 in Calm   2.7 mph 95 % 0 in
21:20 41.9 °F 40.6 °F 30 in Calm   2.9 mph 95 % 0 in
21:25 42.1 °F 40.6 °F 30 in Calm   3.1 mph 95 % 0 in
21:30 42.1 °F 40.6 °F 30 in Calm   3.1 mph 95 % 0 in
21:35 42.1 °F 40.6 °F 30 in SE 1.3 mph 3.1 mph 95 % 0 in
21:40 42.1 °F 40.6 °F 30 in Calm   3.6 mph 95 % 0 in
21:45 42.1 °F 40.6 °F 30 in Calm   4.5 mph 95 % 0 in
21:50 42.1 °F 40.6 °F 30 in Calm   4.5 mph 95 % 0 in
21:55 42.1 °F 40.6 °F 30 in SSE 2.5 mph 2.9 mph 95 % 0 in
22:00 42.1 °F 40.6 °F 30 in Calm   2.7 mph 95 % 0 in
22:05 42.1 °F 40.6 °F 30 in SE 1.3 mph 2.7 mph 95 % 0 in
22:10 42.1 °F 40.6 °F 30 in SSE 1.3 mph 2.9 mph 95 % 0 in
22:15 42.1 °F 40.6 °F 30 in SSE 1.6 mph 2.9 mph 95 % 0 in
22:20 42.1 °F 40.6 °F 30 in SSE 2 mph 2.9 mph 95 % 0 in
22:25 42.3 °F 40.8 °F 30 in SSE 2.5 mph 4 mph 95 % 0 in
22:30 42.3 °F 40.8 °F 30 in Calm   4 mph 95 % 0 in
22:35 42.3 °F 40.8 °F 30 in SSE 0.9 mph 3.4 mph 95 % 0 in
22:40 42.3 °F 40.8 °F 30 in SSE 3.1 mph 3.4 mph 95 % 0 in
22:45 42.3 °F 40.8 °F 30 in South 2.7 mph 3.8 mph 95 % 0 in
22:50 42.3 °F 40.8 °F 30 in SSE 2 mph 3.8 mph 95 % 0 in
22:55 42.3 °F 40.8 °F 30 in SSE 2.7 mph 3.6 mph 95 % 0 in
23:00 42.3 °F 40.8 °F 30 in SSE 3.4 mph 5.8 mph 95 % 0 in
23:05 42.3 °F 40.8 °F 30 in Calm   5.8 mph 95 % 0 in
23:10 42.4 °F 41.2 °F 30 in SSE 2.7 mph 5.4 mph 95 % 0 in
23:15 42.4 °F 40.8 °F 30 in Calm   4.9 mph 94 % 0 in
23:20 42.4 °F 40.8 °F 30 in SE 3.6 mph 4.9 mph 94 % 0 in
23:25 42.4 °F 40.8 °F 30 in SSE 3.8 mph 4.9 mph 94 % 0 in
23:29 42.4 °F 40.8 °F 30 in SSE 3.4 mph 6.5 mph 94 % 0 in
23:34 42.4 °F 40.8 °F 30 in SE 2.7 mph 6.5 mph 94 % 0 in
23:39 42.4 °F 40.8 °F 30 in SE 4.9 mph 5.4 mph 94 % 0 in
23:44 42.4 °F 40.5 °F 30 in SE 4 mph 6 mph 93 % 0 in
23:49 42.4 °F 40.5 °F 30 in SSE 3.4 mph 6 mph 93 % 0 in
23:54 42.4 °F 40.5 °F 30 in SE 3.8 mph 6.3 mph 93 % 0 in
Le Gheer Warneton
Courtoisie de Weather Underground - 2.25 mb

Mise a jour : 17-12-17 09:02:12
Généré par Cumulus 1.9.4 (1099)